Time;durP1;ratioP1;P1;durP2;ratioP2;P2;SDS_P1;SDS_P2;PMS_P1;PMS_P2;Temp;Humidity;BMP_temperature;BMP_pressure;BME280_temperature;BME280_humidity;BME280_pressure;Samples;Min_cycle;Max_cycle;Signal;HPM_P1;HPM_P2
2021/09/28 00:00:36;;;;;;;0.10;0.10;;;;;;;17.41;54.05;99219.09;5049819;28;20460;-87
2021/09/28 00:03:01;;;;;;;0.10;0.10;;;;;;;17.40;54.21;99232.91;5050203;28;20028;-88
2021/09/28 00:05:27;;;;;;;0.35;0.35;;;;;;;17.40;54.41;99233.69;5050260;28;20057;-84
2021/09/28 00:07:53;;;;;;;0.10;0.10;;;;;;;17.42;54.10;99234.19;5031579;28;20033;-82
2021/09/28 00:10:18;;;;;;;0.10;0.10;;;;;;;17.42;54.31;99230.72;5030438;28;20124;-85
2021/09/28 00:12:45;;;;;;;0.20;0.20;;;;;;;17.44;54.15;99234.69;5030166;28;20029;-85
2021/09/28 00:15:13;;;;;;;0.20;0.20;;;;;;;17.48;54.39;99242.13;5030126;28;20036;-84
2021/09/28 00:17:39;;;;;;;0.10;0.10;;;;;;;17.50;54.25;99229.09;5029584;28;20130;-84
2021/09/28 00:20:06;;;;;;;0.10;0.10;;;;;;;17.50;54.30;99235.31;5030810;28;20059;-82
2021/09/28 00:22:32;;;;;;;0.10;0.10;;;;;;;17.59;53.98;99241.50;5029865;28;20032;-88
2021/09/28 00:24:57;;;;;;;0.10;0.10;;;;;;;17.64;53.89;99251.38;5040861;28;20025;-83
2021/09/28 00:27:23;;;;;;;0.20;0.20;;;;;;;17.69;53.91;99251.22;5049760;28;20056;-84
2021/09/28 00:29:48;;;;;;;0.25;0.17;;;;;;;17.75;53.51;99249.94;5049835;28;20388;-80
2021/09/28 00:32:14;;;;;;;0.10;0.10;;;;;;;17.73;52.71;99246.75;5050028;28;20031;-80
2021/09/28 00:34:40;;;;;;;0.00;0.00;;;;;;;17.82;52.30;99257.59;5049823;28;20494;-80
2021/09/28 00:37:07;;;;;;;0.10;0.10;;;;;;;17.86;51.54;99261.25;5049997;28;20021;-80
2021/09/28 00:39:32;;;;;;;0.20;0.20;;;;;;;17.87;51.46;99259.31;5049835;28;20025;-83
2021/09/28 00:41:58;;;;;;;0.10;0.10;;;;;;;17.89;50.95;99267.91;5047354;28;20029;-87
2021/09/28 00:44:34;;;;;;;0.22;0.22;;;;;;;17.87;50.84;99257.44;5049564;28;20029;-83
2021/09/28 00:47:00;;;;;;;0.08;0.08;;;;;;;17.86;50.89;99257.75;5049689;28;20479;-85
2021/09/28 00:49:26;;;;;;;0.10;0.10;;;;;;;17.86;50.90;99260.47;5050240;28;20032;-87
2021/09/28 00:51:51;;;;;;;0.10;0.10;;;;;;;17.79;50.98;99247.41;5049693;28;20036;-84
2021/09/28 00:54:18;;;;;;;0.00;0.00;;;;;;;17.77;50.76;99246.91;5049981;28;20025;-84
2021/09/28 00:56:44;;;;;;;0.10;0.10;;;;;;;17.73;51.08;99243.25;5049397;28;20553;-91
2021/09/28 00:59:10;;;;;;;0.10;0.10;;;;;;;17.68;50.85;99240.72;5050320;28;20024;-88
2021/09/28 01:01:36;;;;;;;0.00;0.00;;;;;;;17.65;51.22;99249.47;5049221;28;20033;-81
2021/09/28 01:04:02;;;;;;;0.10;0.10;;;;;;;17.64;51.22;99253.28;5047362;28;20029;-80
2021/09/28 01:06:27;;;;;;;0.10;0.10;;;;;;;17.59;51.19;99243.44;5050697;28;20361;-83
2021/09/28 01:08:53;;;;;;;0.32;0.32;;;;;;;17.55;51.54;99237.88;5049485;28;20025;-84
2021/09/28 01:11:18;;;;;;;0.10;0.10;;;;;;;17.49;51.49;99231.03;5049389;28;20028;-86
2021/09/28 01:13:44;;;;;;;0.00;0.00;;;;;;;17.43;51.62;99230.38;5047855;28;20040;-82
2021/09/28 01:16:11;;;;;;;0.10;0.10;;;;;;;17.44;51.74;99231.97;5034157;28;20036;-85
2021/09/28 01:18:39;;;;;;;0.00;0.00;;;;;;;17.39;51.94;99234.03;5049731;28;20572;-83
2021/09/28 01:21:07;;;;;;;0.00;0.00;;;;;;;17.38;52.04;99233.25;5049741;28;20020;-82
2021/09/28 01:23:33;;;;;;;0.10;0.10;;;;;;;17.37;51.82;99228.94;5049432;28;20025;-85
2021/09/28 01:25:58;;;;;;;0.10;0.10;;;;;;;17.34;51.70;99224.16;5049481;28;20487;-83
2021/09/28 01:28:24;;;;;;;0.00;0.00;;;;;;;17.31;52.18;99216.69;5049688;28;20036;-80
2021/09/28 01:30:49;;;;;;;0.10;0.10;;;;;;;17.28;52.02;99220.84;5042506;28;20134;-81
2021/09/28 01:33:15;;;;;;;0.00;0.00;;;;;;;17.24;52.03;99227.19;5030488;28;20142;-81
2021/09/28 01:35:41;;;;;;;0.00;0.00;;;;;;;17.19;52.16;99230.03;5048780;28;20024;-83
2021/09/28 01:38:07;;;;;;;0.10;0.10;;;;;;;17.15;52.24;99219.06;5049612;28;20025;-81
2021/09/28 01:40:34;;;;;;;0.10;0.10;;;;;;;17.09;52.49;99218.41;5050735;28;20391;-81
2021/09/28 01:43:14;;;;;;;0.10;0.10;;;;;;;17.05;52.44;99213.94;5047900;28;20582;-79
2021/09/28 01:45:41;;;;;;;0.03;0.03;;;;;;;16.99;52.57;99213.31;5047593;28;20162;-80
2021/09/28 01:48:06;;;;;;;0.10;0.10;;;;;;;16.95;52.91;99213.16;5051364;28;20033;-82
2021/09/28 01:50:33;;;;;;;0.10;0.10;;;;;;;16.92;53.00;99212.97;5045759;28;20028;-86
2021/09/28 01:52:59;;;;;;;0.10;0.10;;;;;;;16.86;53.10;99206.88;5052781;28;20399;-82
2021/09/28 01:55:24;;;;;;;0.10;0.10;;;;;;;16.85;53.18;99207.22;5052864;28;20033;-82
2021/09/28 01:57:55;;;;;;;0.10;0.10;;;;;;;16.81;53.30;99202.41;5052881;28;20029;-88
2021/09/28 02:00:24;;;;;;;0.20;0.20;;;;;;;16.69;53.73;99194.13;5051783;28;20024;-89
2021/09/28 02:02:49;;;;;;;;;;;;;;;16.54;54.26;99189.97;5043583;28;20504;-83
2021/09/28 02:05:15;;;;;;;0.03;0.03;;;;;;;16.45;54.26;99195.31;5052528;28;19909;-85
2021/09/28 02:07:41;;;;;;;0.00;0.00;;;;;;;16.32;54.74;99196.22;5053652;28;20043;-81
2021/09/28 02:10:07;;;;;;;0.00;0.00;;;;;;;16.26;54.94;99197.44;5050718;28;20540;-86
2021/09/28 02:12:33;;;;;;;0.28;0.28;;;;;;;16.14;55.34;99201.50;5052368;28;20120;-84
2021/09/28 02:14:59;;;;;;;0.10;0.10;;;;;;;16.08;55.66;99191.16;5046427;28;20043;-84
2021/09/28 02:17:24;;;;;;;0.10;0.10;;;;;;;16.00;56.22;99181.91;5032218;28;20021;-85
2021/09/28 02:19:50;;;;;;;0.10;0.10;;;;;;;15.94;56.29;99181.25;5031806;28;20539;-88
2021/09/28 02:22:15;;;;;;;0.10;0.10;;;;;;;15.93;57.05;99189.63;5032592;28;20030;-92
2021/09/28 02:24:41;;;;;;;0.10;0.10;;;;;;;15.90;57.64;99182.97;5032396;28;20179;-82
2021/09/28 02:27:06;;;;;;;0.28;0.20;;;;;;;15.92;57.83;99183.47;5031994;28;20032;-81
2021/09/28 02:29:32;;;;;;;0.10;0.10;;;;;;;15.93;57.80;99179.66;5044135;28;20037;-82
2021/09/28 02:31:57;;;;;;;0.10;0.10;;;;;;;15.96;57.73;99173.63;5051877;28;20028;-83
2021/09/28 02:34:23;;;;;;;0.10;0.10;;;;;;;15.98;57.68;99178.75;5047782;28;20105;-81
2021/09/28 02:36:48;;;;;;;0.10;0.10;;;;;;;16.02;57.92;99182.41;5031973;28;20549;-84
2021/09/28 02:39:14;;;;;;;0.10;0.10;;;;;;;16.05;57.85;99181.00;5032163;28;20470;-83
2021/09/28 02:41:39;;;;;;;0.10;0.10;;;;;;;16.10;57.81;99178.97;5037275;28;20415;-83
2021/09/28 02:44:05;;;;;;;0.10;0.10;;;;;;;16.17;57.96;99182.03;5051371;28;20017;-87
2021/09/28 02:46:32;;;;;;;0.10;0.10;;;;;;;16.21;57.56;99179.50;5031843;28;20018;-81
2021/09/28 02:48:58;;;;;;;0.10;0.10;;;;;;;16.26;57.05;99187.44;5032923;28;20464;-82
2021/09/28 02:51:23;;;;;;;0.10;0.10;;;;;;;16.28;56.35;99193.34;5031541;28;20087;-82
2021/09/28 02:53:48;;;;;;;0.20;0.20;;;;;;;16.27;55.85;99190.94;5031559;28;20442;-86
2021/09/28 02:56:14;;;;;;;0.10;0.10;;;;;;;16.27;55.44;99196.34;5031702;28;20542;-84
2021/09/28 02:58:39;;;;;;;0.13;0.13;;;;;;;16.24;55.50;99199.66;5033173;28;20464;-87
2021/09/28 03:01:05;;;;;;;0.10;0.10;;;;;;;16.26;55.29;99197.44;5041439;28;20028;-88
2021/09/28 03:03:30;;;;;;;0.10;0.10;;;;;;;16.24;54.99;99194.25;5042840;28;20128;-83
2021/09/28 03:05:56;;;;;;;0.10;0.10;;;;;;;16.23;55.03;99200.75;5031314;28;20460;-83
2021/09/28 03:08:22;;;;;;;0.17;0.17;;;;;;;16.20;55.23;99204.88;5031365;28;20088;-87
2021/09/28 03:10:48;;;;;;;0.03;0.03;;;;;;;16.19;54.98;99203.28;5031532;28;20119;-92
2021/09/28 03:13:13;;;;;;;0.10;0.10;;;;;;;16.14;54.84;99206.91;5015071;28;20032;-87
2021/09/28 03:15:39;;;;;;;0.20;0.20;;;;;;;16.10;54.75;99200.53;5038315;28;20020;-91
2021/09/28 03:18:04;;;;;;;0.10;0.10;;;;;;;16.07;55.09;99206.53;5049571;28;20458;-87
2021/09/28 03:20:30;;;;;;;0.10;0.10;;;;;;;16.03;55.04;99208.28;5031563;28;20029;-87
2021/09/28 03:22:56;;;;;;;0.10;0.10;;;;;;;16.00;55.33;99203.47;5031199;28;20084;-82
2021/09/28 03:25:21;;;;;;;0.22;0.22;;;;;;;15.98;55.24;99208.41;5031473;28;20029;-84
2021/09/28 03:27:47;;;;;;;0.10;0.10;;;;;;;15.94;55.43;99210.94;5031449;28;20025;-83
2021/09/28 03:30:12;;;;;;;0.10;0.10;;;;;;;15.94;55.42;99210.09;5030917;28;20036;-83
2021/09/28 03:32:38;;;;;;;0.03;0.03;;;;;;;15.93;55.51;99209.31;5031107;28;20068;-83
2021/09/28 03:35:09;;;;;;;0.10;0.10;;;;;;;15.93;55.78;99214.72;5030948;28;20487;-82
2021/09/28 03:37:36;;;;;;;0.10;0.10;;;;;;;15.93;55.65;99220.13;5031098;28;20037;-84
2021/09/28 03:40:04;;;;;;;0.10;0.10;;;;;;;15.90;55.71;99214.53;5032520;28;20059;-87
2021/09/28 03:42:29;;;;;;;0.10;0.10;;;;;;;15.89;55.53;99210.25;5031380;28;20512;-86
2021/09/28 03:44:54;;;;;;;0.10;0.10;;;;;;;15.90;55.83;99209.94;5039594;28;20025;-86
2021/09/28 03:47:20;;;;;;;0.10;0.10;;;;;;;15.91;55.64;99213.44;5047344;28;20025;-85
2021/09/28 03:49:45;;;;;;;0.00;0.00;;;;;;;15.92;55.65;99212.34;5038342;28;20017;-85
2021/09/28 03:52:11;;;;;;;0.00;0.00;;;;;;;15.90;55.68;99211.84;5050358;28;20027;-87
2021/09/28 03:54:36;;;;;;;0.10;0.10;;;;;;;15.89;55.61;99215.63;5042806;28;20021;-85
2021/09/28 03:57:02;;;;;;;0.10;0.10;;;;;;;15.88;55.60;99211.34;5030336;28;20464;-87
2021/09/28 03:59:27;;;;;;;0.40;0.40;;;;;;;15.89;55.71;99218.34;5040475;28;20025;-85
2021/09/28 04:01:53;;;;;;;0.08;0.08;;;;;;;15.87;55.76;99220.53;5049760;28;20051;-88
2021/09/28 04:04:18;;;;;;;0.10;0.10;;;;;;;15.84;55.89;99220.06;5050387;28;20469;-87
2021/09/28 04:06:45;;;;;;;0.10;0.10;;;;;;;15.87;56.00;99224.03;5050466;28;20017;-92
2021/09/28 04:09:10;;;;;;;0.20;0.20;;;;;;;15.89;56.31;99216.41;5033346;28;20558;-88
2021/09/28 04:11:36;;;;;;;0.10;0.10;;;;;;;15.91;56.59;99222.31;5030354;28;20025;-89
2021/09/28 04:14:01;;;;;;;0.10;0.10;;;;;;;15.92;56.57;99232.00;5035591;28;20124;-89
2021/09/28 04:16:28;;;;;;;0.00;0.00;;;;;;;15.92;56.63;99225.81;5043913;28;20078;-77
2021/09/28 04:18:53;;;;;;;0.10;0.10;;;;;;;15.96;57.30;99232.19;5041155;28;20067;-79
2021/09/28 04:21:19;;;;;;;0.30;0.30;;;;;;;15.97;57.76;99237.28;5030166;28;20439;-78
2021/09/28 04:23:46;;;;;;;0.10;0.10;;;;;;;16.00;57.81;99225.06;5043257;28;20443;-78
2021/09/28 04:26:12;;;;;;;0.00;0.00;;;;;;;16.06;57.72;99231.91;5040537;28;20024;-75
2021/09/28 04:28:38;;;;;;;0.10;0.10;;;;;;;16.08;57.31;99224.31;5033068;28;20043;-74
2021/09/28 04:31:03;;;;;;;0.00;0.00;;;;;;;16.13;57.59;99236.91;5050768;28;20527;-74
2021/09/28 04:33:29;;;;;;;0.10;0.10;;;;;;;16.14;57.94;99225.00;5050933;28;20448;-74
2021/09/28 04:35:55;;;;;;;0.10;0.10;;;;;;;16.19;57.54;99230.28;5050481;28;20017;-74
2021/09/28 04:38:20;;;;;;;0.10;0.10;;;;;;;16.26;57.73;99238.72;5050882;28;20116;-74
2021/09/28 04:40:46;;;;;;;0.00;0.00;;;;;;;16.27;57.81;99234.94;5050687;28;20384;-74
2021/09/28 04:43:11;;;;;;;0.10;0.10;;;;;;;16.31;57.78;99243.97;5050608;28;20083;-74
2021/09/28 04:45:36;;;;;;;0.00;0.00;;;;;;;16.35;57.38;99237.97;5050798;28;20477;-74
2021/09/28 04:48:02;;;;;;;0.08;0.08;;;;;;;16.33;56.39;99238.25;5049616;28;20017;-74
2021/09/28 04:50:27;;;;;;;0.00;0.00;;;;;;;16.32;56.09;99239.41;5050491;28;20036;-74
2021/09/28 04:52:53;;;;;;;0.00;0.00;;;;;;;16.33;55.73;99255.28;5050256;28;20461;-74
2021/09/28 04:55:19;;;;;;;0.10;0.10;;;;;;;16.30;55.73;99244.31;5050953;28;20088;-75
2021/09/28 04:57:44;;;;;;;0.10;0.10;;;;;;;16.32;55.76;99245.59;5050459;28;20068;-72
2021/09/28 05:00:10;;;;;;;0.10;0.10;;;;;;;16.25;55.94;99244.44;5050102;28;20124;-72
2021/09/28 05:02:36;;;;;;;0.10;0.10;;;;;;;16.24;55.69;99253.63;5050773;28;20060;-74
2021/09/28 05:05:03;;;;;;;0.28;0.28;;;;;;;16.25;55.80;99260.63;5050355;28;20044;-74
2021/09/28 05:07:28;;;;;;;0.20;0.20;;;;;;;16.25;55.67;99258.72;5049282;28;20120;-74
2021/09/28 05:09:53;;;;;;;0.10;0.10;;;;;;;16.26;56.12;99262.19;5050343;28;20160;-74
2021/09/28 05:12:20;;;;;;;0.10;0.10;;;;;;;16.25;56.06;99268.72;5050288;28;20036;-74
2021/09/28 05:14:45;;;;;;;0.10;0.10;;;;;;;16.29;55.92;99267.78;5054528;28;20052;-74
2021/09/28 05:17:11;;;;;;;0.10;0.10;;;;;;;16.26;55.68;99268.41;5054055;28;20456;-74
2021/09/28 05:19:37;;;;;;;0.10;0.10;;;;;;;16.28;55.79;99271.59;5052939;28;20460;-74
2021/09/28 05:22:02;;;;;;;0.00;0.00;;;;;;;16.32;55.92;99258.28;5054293;28;20170;-74
2021/09/28 05:24:28;;;;;;;0.00;0.00;;;;;;;16.37;55.53;99260.03;5054481;28;20439;-74
2021/09/28 05:26:54;;;;;;;0.10;0.10;;;;;;;16.45;55.72;99265.50;5053910;28;20104;-74
2021/09/28 05:29:19;;;;;;;0.10;0.10;;;;;;;16.50;55.10;99267.25;5054072;28;20025;-74
2021/09/28 05:31:44;;;;;;;0.08;0.08;;;;;;;16.54;55.14;99265.53;5054301;28;20029;-74
2021/09/28 05:34:10;;;;;;;0.00;0.00;;;;;;;16.55;54.89;99266.34;5054051;28;20020;-74
2021/09/28 05:36:35;;;;;;;0.00;0.00;;;;;;;16.62;55.09;99266.69;5053954;28;20025;-74
2021/09/28 05:39:01;;;;;;;0.00;0.00;;;;;;;16.67;55.00;99271.16;5053925;28;20053;-74
2021/09/28 05:41:27;;;;;;;0.00;0.00;;;;;;;16.74;55.36;99269.59;5054115;28;20530;-74
2021/09/28 05:43:52;;;;;;;0.00;0.00;;;;;;;16.74;54.77;99266.88;5053906;28;20021;-74
2021/09/28 05:46:18;;;;;;;0.10;0.10;;;;;;;16.75;54.96;99275.81;5054305;28;20370;-74
2021/09/28 05:48:43;;;;;;;0.10;0.10;;;;;;;16.80;55.52;99265.66;5053988;28;20061;-74
2021/09/28 05:51:17;;;;;;;0.10;0.10;;;;;;;16.87;55.17;99270.59;5053862;28;20020;-74
2021/09/28 05:53:44;;;;;;;0.00;0.00;;;;;;;16.91;55.44;99271.56;5053626;28;20447;-74
2021/09/28 05:56:11;;;;;;;0.10;0.10;;;;;;;16.97;55.37;99266.84;5053293;28;20482;-74
2021/09/28 05:58:37;;;;;;;0.10;0.10;;;;;;;17.06;55.80;99267.66;5053780;28;20029;-74
2021/09/28 06:01:02;;;;;;;0.10;0.10;;;;;;;17.17;56.11;99264.69;5052068;28;20383;-74
2021/09/28 06:03:28;;;;;;;0.00;0.00;;;;;;;17.29;56.46;99276.47;5053192;28;20052;-74
2021/09/28 06:05:53;;;;;;;0.10;0.10;;;;;;;17.41;56.72;99278.56;5053364;28;20074;-74
2021/09/28 06:08:18;;;;;;;0.10;0.10;;;;;;;17.53;56.88;99283.34;5053503;28;20021;-74
2021/09/28 06:10:44;;;;;;;0.20;0.20;;;;;;;17.70;57.26;99276.34;5053498;28;20111;-74
2021/09/28 06:13:10;;;;;;;0.15;0.15;;;;;;;17.90;56.77;99283.81;5053128;28;20024;-74
2021/09/28 06:15:36;;;;;;;0.55;0.55;;;;;;;18.07;56.10;99287.69;5053498;28;20020;-74
2021/09/28 06:18:01;;;;;;;0.08;0.08;;;;;;;18.22;56.30;99289.91;5053476;28;20033;-74
2021/09/28 06:20:27;;;;;;;0.05;0.05;;;;;;;18.43;55.70;99283.81;5053415;28;20159;-74
2021/09/28 06:22:52;;;;;;;0.10;0.10;;;;;;;18.61;55.35;99283.75;5053018;28;20418;-74
2021/09/28 06:25:18;;;;;;;0.45;0.45;;;;;;;18.77;54.90;99287.50;5051094;28;20032;-74
2021/09/28 06:27:43;;;;;;;0.15;0.15;;;;;;;18.87;54.44;99292.56;5053180;28;20017;-72
2021/09/28 06:30:09;;;;;;;0.30;0.30;;;;;;;19.00;54.79;99292.69;5051662;28;20464;-74
2021/09/28 06:32:34;;;;;;;0.22;0.22;;;;;;;19.07;54.74;99298.41;5052935;28;20021;-74
2021/09/28 06:35:00;;;;;;;0.10;0.10;;;;;;;19.19;55.17;99300.44;5053002;28;20039;-74
2021/09/28 06:37:25;;;;;;;0.00;0.00;;;;;;;19.23;54.52;99298.63;5051706;28;20053;-73
2021/09/28 06:39:51;;;;;;;0.10;0.10;;;;;;;19.25;54.61;99292.88;5052638;28;20024;-73
2021/09/28 06:42:16;;;;;;;0.10;0.10;;;;;;;19.23;54.39;99289.72;5052744;28;20025;-73
2021/09/28 06:44:42;;;;;;;0.10;0.10;;;;;;;19.22;54.01;99288.91;5052900;28;20349;-73
2021/09/28 06:47:07;;;;;;;0.40;0.40;;;;;;;19.29;53.79;99301.97;5052595;28;20025;-73
2021/09/28 06:49:33;;;;;;;0.43;0.43;;;;;;;19.35;53.67;99297.94;5052836;28;20060;-73
2021/09/28 06:51:58;;;;;;;0.10;0.10;;;;;;;19.40;53.52;99311.31;5052566;28;20021;-73
2021/09/28 06:54:25;;;;;;;0.10;0.10;;;;;;;19.45;53.52;99313.03;5052416;28;20029;-73
2021/09/28 06:56:50;;;;;;;0.17;0.13;;;;;;;19.52;53.43;99313.31;5052689;28;20048;-73
2021/09/28 06:59:16;;;;;;;0.20;0.20;;;;;;;19.56;53.29;99311.50;5052408;28;20503;-73
2021/09/28 07:01:41;;;;;;;0.63;0.57;;;;;;;19.61;53.44;99314.03;5052353;28;20052;-73
2021/09/28 07:04:07;;;;;;;0.20;0.20;;;;;;;19.76;53.12;99320.00;5052013;28;20056;-73
2021/09/28 07:06:33;;;;;;;0.10;0.10;;;;;;;19.84;53.30;99321.88;5051216;28;20024;-73
2021/09/28 07:08:59;;;;;;;0.55;0.55;;;;;;;19.95;52.54;99333.13;5052239;28;20384;-73
2021/09/28 07:11:25;;;;;;;0.08;0.08;;;;;;;20.03;52.20;99331.47;5052494;28;20017;-73
2021/09/28 07:13:50;;;;;;;0.03;0.03;;;;;;;20.16;52.25;99330.41;5052395;28;20077;-73
2021/09/28 07:16:17;;;;;;;0.13;0.13;;;;;;;20.34;52.39;99330.25;5051842;28;20036;-73
2021/09/28 07:18:43;;;;;;;0.10;0.10;;;;;;;20.48;51.56;99330.72;5052022;28;20037;-73
2021/09/28 07:21:09;;;;;;;0.00;0.00;;;;;;;20.62;51.82;99327.72;5051899;28;20036;-73
2021/09/28 07:23:35;;;;;;;0.22;0.22;;;;;;;20.80;51.33;99322.91;5052135;28;20043;-73
2021/09/28 07:26:01;;;;;;;0.00;0.00;;;;;;;20.91;51.60;99320.53;5051653;28;20056;-73
2021/09/28 07:28:26;;;;;;;0.13;0.13;;;;;;;21.09;51.21;99329.28;5052105;28;20447;-73
2021/09/28 07:30:52;;;;;;;0.10;0.10;;;;;;;21.14;50.71;99336.41;5052038;28;20021;-73
2021/09/28 07:33:18;;;;;;;0.10;0.10;;;;;;;21.12;51.03;99331.31;5051738;28;20043;-73
2021/09/28 07:35:44;;;;;;;0.10;0.10;;;;;;;21.17;51.06;99331.09;5050452;28;20087;-73
2021/09/28 07:38:11;;;;;;;0.10;0.10;;;;;;;21.18;50.83;99321.00;5051106;28;20465;-73
2021/09/28 07:40:38;;;;;;;0.10;0.10;;;;;;;21.28;50.82;99321.34;5051760;28;20020;-73
2021/09/28 07:43:04;;;;;;;0.00;0.00;;;;;;;21.37;50.95;99323.94;5051909;28;20112;-73
2021/09/28 07:45:29;;;;;;;0.03;0.03;;;;;;;21.55;50.81;99326.41;5051493;28;20544;-73
2021/09/28 07:47:54;;;;;;;0.00;0.00;;;;;;;21.69;49.71;99328.78;5051834;28;20522;-73
2021/09/28 07:50:20;;;;;;;0.03;0.03;;;;;;;21.72;49.66;99317.22;5051476;28;20476;-73
2021/09/28 07:52:45;;;;;;;0.05;0.05;;;;;;;21.86;49.63;99320.38;5051650;28;20048;-73
2021/09/28 07:55:11;;;;;;;0.00;0.00;;;;;;;22.00;49.30;99319.19;5051656;28;20029;-74
2021/09/28 07:57:37;;;;;;;0.05;0.05;;;;;;;22.12;49.09;99323.78;5050295;28;20025;-73
2021/09/28 08:00:08;;;;;;;0.00;0.00;;;;;;;22.20;48.95;99311.94;5051143;28;20019;-73
2021/09/28 08:02:35;;;;;;;0.10;0.10;;;;;;;22.30;48.67;99316.91;5051518;28;20503;-73
2021/09/28 08:05:01;;;;;;;0.10;0.10;;;;;;;22.41;48.55;99319.13;5051231;28;20073;-73
2021/09/28 08:07:26;;;;;;;0.10;0.10;;;;;;;22.46;48.17;99310.69;5051467;28;20056;-73
2021/09/28 08:09:51;;;;;;;0.20;0.20;;;;;;;22.46;47.07;99316.97;5050021;28;20471;-73
2021/09/28 08:12:17;;;;;;;0.00;0.00;;;;;;;22.37;47.24;99308.91;5051107;28;20079;-73
2021/09/28 08:14:42;;;;;;;0.32;0.32;;;;;;;22.35;47.22;99307.66;5051317;28;20032;-73
2021/09/28 08:17:08;;;;;;;0.10;0.10;;;;;;;22.35;47.43;99308.47;5050713;28;20017;-73
2021/09/28 08:19:35;;;;;;;0.10;0.10;;;;;;;22.35;46.46;99308.47;5051157;28;20360;-73
2021/09/28 08:22:03;;;;;;;0.08;0.08;;;;;;;22.32;46.62;99300.19;5050890;28;20025;-73
2021/09/28 08:24:39;;;;;;;0.45;0.45;;;;;;;22.32;46.15;99302.94;5051198;28;20037;-73
2021/09/28 08:29:49;;;;;;;0.25;0.15;;;;;;;22.22;47.35;99296.06;5051108;28;20036;-73
2021/09/28 08:32:14;;;;;;;0.08;0.08;;;;;;;22.24;47.66;99296.50;5051156;28;20024;-73
2021/09/28 08:34:39;;;;;;;0.00;0.00;;;;;;;22.29;47.99;99289.97;5049693;28;20528;-73
2021/09/28 08:37:05;;;;;;;0.00;0.00;;;;;;;22.35;48.01;99303.03;5050652;28;20021;-73
2021/09/28 08:39:30;;;;;;;0.00;0.00;;;;;;;22.39;47.64;99301.19;5051003;28;20539;-73
2021/09/28 08:41:57;;;;;;;0.00;0.00;;;;;;;22.45;47.31;99304.47;5050927;28;20025;-74
2021/09/28 08:44:22;;;;;;;0.00;0.00;;;;;;;22.52;46.58;99312.84;5050763;28;20029;-73
2021/09/28 08:46:49;;;;;;;0.00;0.00;;;;;;;22.52;46.23;99306.56;5051250;28;20025;-73
2021/09/28 08:49:18;;;;;;;0.00;0.00;;;;;;;22.59;45.95;99314.16;5053704;28;20036;-73
2021/09/28 08:51:47;;;;;;;0.05;0.05;;;;;;;22.62;45.93;99310.72;5055057;28;20025;-73
2021/09/28 08:54:12;;;;;;;0.00;0.00;;;;;;;22.63;45.69;99299.47;5055112;28;20021;-73
2021/09/28 08:56:38;;;;;;;0.08;0.08;;;;;;;22.70;45.94;99299.66;5054669;28;20472;-73
2021/09/28 08:59:07;;;;;;;0.00;0.00;;;;;;;22.75;45.98;99298.59;5054736;28;20057;-73
2021/09/28 09:01:37;;;;;;;0.00;0.00;;;;;;;22.79;46.20;99296.75;5054692;28;20025;-73
2021/09/28 09:04:14;;;;;;;0.00;0.00;;;;;;;22.86;46.20;99296.94;5054654;28;20052;-73
2021/09/28 09:06:40;;;;;;;0.40;0.40;;;;;;;22.93;45.69;99298.25;5054721;28;20027;-75
2021/09/28 09:09:05;;;;;;;0.10;0.10;;;;;;;22.89;44.91;99289.16;5053161;28;20021;-73
2021/09/28 09:11:37;;;;;;;0.20;0.20;;;;;;;22.77;44.78;99298.25;5054673;28;20032;-73
2021/09/28 09:14:14;;;;;;;0.00;0.00;;;;;;;22.64;45.38;99283.91;5054666;28;20025;-73
2021/09/28 09:16:41;;;;;;;0.00;0.00;;;;;;;22.58;45.73;99288.81;5054427;28;20431;-73
2021/09/28 09:19:22;;;;;;;0.08;0.08;;;;;;;22.51;45.77;99285.94;5054033;28;20128;-74
2021/09/28 09:21:55;;;;;;;0.10;0.10;;;;;;;22.49;45.83;99283.53;5054181;28;20031;-73
2021/09/28 09:24:40;;;;;;;0.00;0.00;;;;;;;22.51;45.78;99280.50;5054255;28;20025;-73
2021/09/28 09:27:06;;;;;;;0.00;0.00;;;;;;;22.50;45.64;99276.94;5054163;28;20024;-73
2021/09/28 09:29:31;;;;;;;0.00;0.00;;;;;;;22.48;45.64;99271.06;5054439;28;20021;-73
2021/09/28 09:31:57;;;;;;;0.10;0.10;;;;;;;22.51;44.63;99275.81;5054340;28;20032;-73
2021/09/28 09:34:24;;;;;;;0.10;0.10;;;;;;;22.47;44.75;99269.50;5053697;28;20434;-73
2021/09/28 09:37:01;;;;;;;0.05;0.05;;;;;;;22.44;44.42;99275.63;5054349;28;20070;-73
2021/09/28 09:39:26;;;;;;;0.20;0.20;;;;;;;22.38;44.54;99279.75;5053634;28;20368;-73
2021/09/28 09:42:06;;;;;;;0.08;0.08;;;;;;;22.33;44.62;99267.16;5054332;28;20024;-73
2021/09/28 09:44:33;;;;;;;0.20;0.20;;;;;;;22.28;44.60;99266.63;5054113;28;20103;-73
2021/09/28 09:47:01;;;;;;;0.10;0.10;;;;;;;22.27;44.61;99265.03;5054007;28;20021;-73
2021/09/28 09:49:31;;;;;;;0.10;0.10;;;;;;;22.25;44.62;99270.03;5053767;28;20029;-73
2021/09/28 09:52:09;;;;;;;0.00;0.00;;;;;;;22.19;43.09;99269.50;5053950;28;20025;-73
2021/09/28 09:54:40;;;;;;;0.30;0.30;;;;;;;22.04;43.71;99268.31;5054024;28;20029;-73
2021/09/28 09:57:07;;;;;;;0.00;0.00;;;;;;;22.04;44.11;99273.78;5052999;28;20403;-73
2021/09/28 09:59:34;;;;;;;0.10;0.10;;;;;;;21.98;44.47;99259.59;5052556;28;20028;-73
2021/09/28 10:02:01;;;;;;;0.00;0.00;;;;;;;21.95;44.89;99259.50;5052455;28;20037;-73
2021/09/28 10:04:27;;;;;;;0.22;0.22;;;;;;;21.94;45.59;99260.66;5053458;28;20032;-73
2021/09/28 10:06:53;;;;;;;0.25;0.25;;;;;;;21.91;44.95;99262.16;5053341;28;20032;-73
2021/09/28 10:09:24;;;;;;;0.08;0.08;;;;;;;21.97;44.82;99262.69;5053379;28;20082;-73
2021/09/28 10:11:52;;;;;;;0.00;0.00;;;;;;;21.97;44.80;99258.03;5053582;28;20020;-72
2021/09/28 10:14:36;;;;;;;0.55;0.55;;;;;;;22.04;45.10;99258.22;5051993;28;20460;-73
2021/09/28 10:17:20;;;;;;;0.30;0.30;;;;;;;22.10;45.02;99264.22;5053411;28;20025;-75
2021/09/28 10:19:53;;;;;;;0.10;0.10;;;;;;;22.11;44.73;99268.53;5053302;28;20132;-74
2021/09/28 10:22:55;;;;;;;0.20;0.20;;;;;;;22.10;44.42;99261.47;5053145;28;20031;-74
2021/09/28 10:25:23;;;;;;;0.47;0.47;;;;;;;22.14;44.65;99259.66;5053094;28;20035;-74
2021/09/28 10:27:56;;;;;;;;;;;;;;;22.22;44.84;99261.41;5053222;28;20403;-72
2021/09/28 10:33:06;;;;;;;0.00;0.00;;;;;;;22.32;44.63;99253.88;5053220;28;20032;-72
2021/09/28 10:35:34;;;;;;;0.10;0.10;;;;;;;22.30;44.80;99246.06;5052939;28;20025;-72
2021/09/28 10:38:06;;;;;;;0.10;0.10;;;;;;;22.38;44.08;99260.69;5053387;28;20025;-72
2021/09/28 10:40:32;;;;;;;0.00;0.00;;;;;;;22.45;44.15;99258.16;5052969;28;20113;-73
2021/09/28 10:43:09;;;;;;;0.10;0.10;;;;;;;22.50;44.12;99252.44;5052697;28;20053;-72
2021/09/28 10:45:36;;;;;;;0.10;0.10;;;;;;;22.60;43.74;99258.50;5051762;28;20067;-73
2021/09/28 10:48:18;;;;;;;0.00;0.00;;;;;;;22.66;43.56;99254.38;5051820;28;20470;-72
2021/09/28 10:50:45;;;;;;;0.00;0.00;;;;;;;22.73;43.71;99256.47;5052932;28;20029;-73
2021/09/28 10:53:20;;;;;;;0.07;0.07;;;;;;;22.70;43.58;99255.25;5052915;28;20133;-74
2021/09/28 10:56:08;;;;;;;0.00;0.00;;;;;;;22.67;43.68;99250.50;5052797;28;20040;-74
2021/09/28 10:58:51;;;;;;;0.00;0.00;;;;;;;22.62;44.01;99257.00;5052753;28;20024;-74
2021/09/28 11:01:18;;;;;;;0.00;0.00;;;;;;;22.64;44.29;99248.47;5050980;28;20537;-73
2021/09/28 11:03:56;;;;;;;0.20;0.20;;;;;;;22.69;44.15;99240.03;5052330;28;20480;-74
2021/09/28 11:06:40;;;;;;;0.00;0.00;;;;;;;22.73;44.28;99242.84;5052262;28;20354;-74
2021/09/28 11:09:09;;;;;;;0.05;0.05;;;;;;;22.68;44.30;99238.47;5052197;28;20387;-74
2021/09/28 11:11:35;;;;;;;0.00;0.00;;;;;;;22.71;44.00;99243.19;5051952;28;20357;-74
2021/09/28 11:14:06;;;;;;;0.30;0.30;;;;;;;22.67;43.76;99239.59;5052233;28;20058;-74
2021/09/28 11:16:56;;;;;;;0.00;0.00;;;;;;;22.66;44.24;99241.53;5052129;28;20021;-74
2021/09/28 11:19:31;;;;;;;0.00;0.00;;;;;;;22.66;44.18;99240.75;5052055;28;20049;-73
2021/09/28 11:21:56;;;;;;;0.00;0.00;;;;;;;22.60;44.26;99231.25;5051874;28;20017;-74
2021/09/28 11:24:26;;;;;;;0.10;0.10;;;;;;;22.61;44.19;99239.06;5050548;28;20062;-74
2021/09/28 11:26:59;;;;;;;0.00;0.00;;;;;;;22.66;44.10;99241.53;5052229;28;20108;-74
2021/09/28 11:29:25;;;;;;;0.00;0.00;;;;;;;22.57;44.08;99232.75;5052019;28;20021;-74
2021/09/28 11:31:51;;;;;;;0.00;0.00;;;;;;;22.54;44.41;99238.88;5051823;28;20029;-74
2021/09/28 11:34:28;;;;;;;0.00;0.00;;;;;;;22.51;44.49;99242.34;5051796;28;20028;-74
2021/09/28 11:37:01;;;;;;;0.10;0.10;;;;;;;22.50;44.39;99240.75;5051939;28;20468;-74
2021/09/28 11:39:29;;;;;;;0.00;0.00;;;;;;;22.49;45.32;99252.78;5051694;28;20430;-74